Time;durP1;ratioP1;P1;durP2;ratioP2;P2;SDS_P1;SDS_P2;PMS_P1;PMS_P2;Temp;Humidity;BMP_temperature;BMP_pressure;BME280_temperature;BME280_humidity;BME280_pressure;Samples;Min_cycle;Max_cycle;Signal;HPM_P1;HPM_P2
2022/02/16 00:00:34;;;;;;;127.57;20.05;;;8.80;91.10;;;;;;5020364;28;20440;-63
2022/02/16 00:02:59;;;;;;;105.65;15.73;;;8.80;91.20;;;;;;5017716;28;20525;-62
2022/02/16 00:05:25;;;;;;;113.85;18.77;;;8.70;91.20;;;;;;5019108;28;20108;-65
2022/02/16 00:07:50;;;;;;;107.43;17.33;;;8.70;91.10;;;;;;5019911;28;20121;-62
2022/02/16 00:10:17;;;;;;;95.10;16.77;;;8.70;91.30;;;;;;5024889;28;20025;-63
2022/02/16 00:12:42;;;;;;;93.55;17.88;;;8.70;91.20;;;;;;5023689;28;20029;-65
2022/02/16 00:15:09;;;;;;;85.30;16.60;;;8.70;91.30;;;;;;5023859;28;20021;-63
2022/02/16 00:17:35;;;;;;;96.72;16.45;;;8.70;91.40;;;;;;5021111;28;20382;-61
2022/02/16 00:20:01;;;;;;;88.07;16.98;;;8.70;91.40;;;;;;5025412;28;20086;-62
2022/02/16 00:22:26;;;;;;;89.88;15.63;;;8.70;91.30;;;;;;5024743;28;20568;-61
2022/02/16 00:24:52;;;;;;;78.88;15.35;;;8.70;91.30;;;;;;5019963;28;20453;-63
2022/02/16 00:27:17;;;;;;;77.00;13.00;;;8.60;91.40;;;;;;5027809;28;20122;-64
2022/02/16 00:29:43;;;;;;;95.90;16.42;;;8.60;91.40;;;;;;5011773;28;20076;-62
2022/02/16 00:32:09;;;;;;;77.68;14.80;;;8.60;91.50;;;;;;5024473;28;20112;-63
2022/02/16 00:34:35;;;;;;;85.43;15.85;;;8.60;91.50;;;;;;5017232;28;20041;-61
2022/02/16 00:37:01;;;;;;;76.53;14.40;;;8.60;91.50;;;;;;5028481;28;20052;-61
2022/02/16 00:39:26;;;;;;;62.20;15.07;;;8.60;91.50;;;;;;5022943;28;20516;-62
2022/02/16 00:41:52;;;;;;;69.88;15.02;;;8.60;91.50;;;;;;5025245;28;20041;-63
2022/02/16 00:44:17;;;;;;;85.65;15.45;;;8.60;91.50;;;;;;5022421;28;20025;-61
2022/02/16 00:46:43;;;;;;;82.72;14.68;;;8.60;91.50;;;;;;5015081;28;20029;-62
2022/02/16 00:49:08;;;;;;;73.45;14.57;;;8.50;91.50;;;;;;5029975;28;20107;-63
2022/02/16 00:51:34;;;;;;;72.95;14.13;;;8.50;91.40;;;;;;5027012;28;20033;-63
2022/02/16 00:53:59;;;;;;;82.15;13.88;;;8.50;91.40;;;;;;5018678;28;20381;-63
2022/02/16 00:56:25;;;;;;;80.78;14.63;;;8.50;91.40;;;;;;5010981;28;20144;-64
2022/02/16 00:58:50;;;;;;;76.72;14.50;;;8.50;91.50;;;;;;5020573;28;20428;-64
2022/02/16 01:01:16;;;;;;;72.70;13.80;;;8.60;91.70;;;;;;5026017;28;20335;-64
2022/02/16 01:03:41;;;;;;;74.20;13.48;;;8.50;91.60;;;;;;5009758;28;20032;-62
2022/02/16 01:06:07;;;;;;;66.57;13.57;;;8.50;91.60;;;;;;5019084;28;20034;-62
2022/02/16 01:08:32;;;;;;;61.08;13.32;;;8.50;91.50;;;;;;5026863;28;20543;-60
2022/02/16 01:10:58;;;;;;;67.63;13.93;;;8.50;91.50;;;;;;5018878;28;20033;-62
2022/02/16 01:13:26;;;;;;;71.57;13.65;;;8.60;91.50;;;;;;5023941;28;20380;-64
2022/02/16 01:15:52;;;;;;;65.75;12.68;;;8.60;91.40;;;;;;5021106;28;20052;-61
2022/02/16 01:18:18;;;;;;;72.78;13.00;;;8.50;91.30;;;;;;5020098;28;20104;-62
2022/02/16 01:20:43;;;;;;;58.95;13.27;;;8.50;91.40;;;;;;5023042;28;20304;-61
2022/02/16 01:23:09;;;;;;;57.83;12.45;;;8.50;91.40;;;;;;5020329;28;20060;-62
2022/02/16 01:25:35;;;;;;;64.10;13.48;;;8.50;91.40;;;;;;5013736;28;20040;-61
2022/02/16 01:28:00;;;;;;;58.55;11.90;;;8.50;91.40;;;;;;5022096;28;20038;-62
2022/02/16 01:30:26;;;;;;;63.13;12.88;;;8.50;91.40;;;;;;5016328;28;20042;-63
2022/02/16 01:32:52;;;;;;;59.83;11.55;;;8.50;91.40;;;;;;5015492;28;20030;-63
2022/02/16 01:35:17;;;;;;;63.88;12.15;;;8.40;91.30;;;;;;5025369;28;20040;-63
2022/02/16 01:37:43;;;;;;;49.95;12.13;;;8.50;91.40;;;;;;5018260;28;20095;-63
2022/02/16 01:40:09;;;;;;;60.20;12.43;;;8.50;91.40;;;;;;5002658;28;20033;-63
2022/02/16 01:42:34;;;;;;;61.20;11.55;;;8.40;91.40;;;;;;5019745;28;20092;-64
2022/02/16 01:45:00;;;;;;;63.95;12.45;;;8.40;91.40;;;;;;4999177;28;20378;-62
2022/02/16 01:47:26;;;;;;;55.88;12.02;;;8.40;91.40;;;;;;5021734;28;20486;-64
2022/02/16 01:49:51;;;;;;;55.60;12.40;;;8.40;91.40;;;;;;5027594;28;20335;-65
2022/02/16 01:52:17;;;;;;;44.63;11.68;;;8.40;91.40;;;;;;5029169;28;20510;-63
2022/02/16 01:54:42;;;;;;;53.38;11.57;;;8.40;91.50;;;;;;5026807;28;20493;-63
2022/02/16 01:57:08;;;;;;;67.45;11.50;;;8.40;91.40;;;;;;5023883;28;20029;-62
2022/02/16 01:59:34;;;;;;;49.78;10.50;;;8.40;91.30;;;;;;5025907;28;20112;-64
2022/02/16 02:01:59;;;;;;;47.75;11.38;;;8.40;91.20;;;;;;5022524;28;20060;-62
2022/02/16 02:04:25;;;;;;;37.05;10.98;;;8.40;91.20;;;;;;5028959;28;20065;-61
2022/02/16 02:06:51;;;;;;;46.47;13.20;;;8.40;91.20;;;;;;5027545;28;20032;-64
2022/02/16 02:09:16;;;;;;;53.83;12.45;;;8.40;91.10;;;;;;5024696;28;20036;-64
2022/02/16 02:11:42;;;;;;;46.38;11.93;;;8.40;91.20;;;;;;5025052;28;20076;-61
2022/02/16 02:14:08;;;;;;;45.05;11.13;;;8.40;91.20;;;;;;5025515;28;20457;-64
2022/02/16 02:16:34;;;;;;;46.40;10.60;;;8.40;91.20;;;;;;5007745;28;20529;-63
2022/02/16 02:19:00;;;;;;;42.58;10.50;;;8.40;91.20;;;;;;5026198;28;20033;-63
2022/02/16 02:21:25;;;;;;;35.70;10.00;;;8.40;91.20;;;;;;5026726;28;20554;-63
2022/02/16 02:23:51;;;;;;;35.38;10.73;;;8.30;91.00;;;;;;5025154;28;20026;-63
2022/02/16 02:26:17;;;;;;;48.90;11.05;;;8.40;91.00;;;;;;5022310;28;20441;-65
2022/02/16 02:28:43;;;;;;;44.90;9.90;;;8.30;90.90;;;;;;5016250;28;20022;-63
2022/02/16 02:31:08;;;;;;;46.65;10.95;;;8.40;91.00;;;;;;5024266;28;20136;-60
2022/02/16 02:33:34;;;;;;;41.42;10.02;;;8.30;91.00;;;;;;5026211;28;20110;-60
2022/02/16 02:36:00;;;;;;;38.53;10.00;;;8.30;91.20;;;;;;5027081;28;20041;-61
2022/02/16 02:38:26;;;;;;;36.22;9.23;;;8.30;91.20;;;;;;5007626;28;20053;-63
2022/02/16 02:40:56;;;;;;;38.88;10.00;;;8.30;90.90;;;;;;5027936;28;20425;-63
2022/02/16 02:43:21;;;;;;;39.15;9.13;;;8.30;90.80;;;;;;5022723;28;20148;-63
2022/02/16 02:45:47;;;;;;;39.72;9.65;;;8.30;90.80;;;;;;5008105;28;20108;-61
2022/02/16 02:48:13;;;;;;;34.38;9.43;;;8.30;90.80;;;;;;5021935;28;20068;-61
2022/02/16 02:50:38;;;;;;;35.85;8.70;;;8.30;90.90;;;;;;5023633;28;20083;-61
2022/02/16 02:53:04;;;;;;;32.10;9.15;;;8.30;90.80;;;;;;5021755;28;20417;-63
2022/02/16 02:55:29;;;;;;;31.08;9.80;;;8.30;90.90;;;;;;5025432;28;20365;-61
2022/02/16 02:57:55;;;;;;;24.45;8.35;;;8.30;90.70;;;;;;5028272;28;20033;-61
2022/02/16 03:00:20;;;;;;;39.58;8.27;;;8.30;90.70;;;;;;5025780;28;20408;-64
2022/02/16 03:02:46;;;;;;;32.03;8.40;;;8.30;90.70;;;;;;5021515;28;20041;-64
2022/02/16 03:05:12;;;;;;;31.00;7.53;;;8.30;90.70;;;;;;5018071;28;20104;-63
2022/02/16 03:07:38;;;;;;;32.30;7.45;;;8.30;90.70;;;;;;5003868;28;20030;-60
2022/02/16 03:10:04;;;;;;;34.90;7.40;;;8.30;90.80;;;;;;5021225;28;20426;-61
2022/02/16 03:12:30;;;;;;;31.13;7.85;;;8.30;91.00;;;;;;5026823;28;20108;-62
2022/02/16 03:14:55;;;;;;;21.52;6.82;;;8.30;91.10;;;;;;5024328;28;20083;-64
2022/02/16 03:17:21;;;;;;;26.40;7.25;;;8.30;91.00;;;;;;5024906;28;20033;-63
2022/02/16 03:19:46;;;;;;;38.60;9.95;;;8.30;91.00;;;;;;5027297;28;20033;-64
2022/02/16 03:22:12;;;;;;;24.95;9.20;;;8.30;91.00;;;;;;5027817;28;20530;-64
2022/02/16 03:24:37;;;;;;;25.95;8.10;;;8.30;91.10;;;;;;5020611;28;20037;-62
2022/02/16 03:27:03;;;;;;;23.92;8.35;;;8.30;91.10;;;;;;5027140;28;20033;-63
2022/02/16 03:29:28;;;;;;;27.63;8.00;;;8.30;91.10;;;;;;5021375;28;20565;-61
2022/02/16 03:31:54;;;;;;;33.03;8.57;;;8.30;91.10;;;;;;5027765;28;20041;-61
2022/02/16 03:34:19;;;;;;;28.50;7.25;;;8.30;91.10;;;;;;5027596;28;20022;-65
2022/02/16 03:36:45;;;;;;;34.05;8.70;;;8.30;91.10;;;;;;5024005;28;20060;-63
2022/02/16 03:39:10;;;;;;;23.98;8.32;;;8.30;91.10;;;;;;5022710;28;20442;-63
2022/02/16 03:41:36;;;;;;;20.70;7.43;;;8.30;91.10;;;;;;5021458;28;20404;-63
2022/02/16 03:44:02;;;;;;;27.25;7.75;;;8.30;91.10;;;;;;5022467;28;20463;-62
2022/02/16 03:46:27;;;;;;;30.63;7.65;;;8.20;91.20;;;;;;5019142;28;20088;-62
2022/02/16 03:48:53;;;;;;;22.08;7.95;;;8.20;91.20;;;;;;5023828;28;20059;-61
2022/02/16 03:51:18;;;;;;;29.92;7.82;;;8.30;91.20;;;;;;5024600;28;20048;-63
2022/02/16 03:53:45;;;;;;;29.92;8.73;;;8.30;91.10;;;;;;5023033;28;20095;-62
2022/02/16 03:56:10;;;;;;;28.65;7.97;;;8.30;91.00;;;;;;5025638;28;20036;-59
2022/02/16 03:58:36;;;;;;;25.45;7.10;;;8.20;90.90;;;;;;5026115;28;20037;-62
2022/02/16 04:01:02;;;;;;;20.17;6.85;;;8.20;91.00;;;;;;5028843;28;20029;-60
2022/02/16 04:03:28;;;;;;;20.17;7.38;;;8.30;90.90;;;;;;5025572;28;20026;-61
2022/02/16 04:05:53;;;;;;;26.38;7.50;;;8.30;90.90;;;;;;5028654;28;20071;-59
2022/02/16 04:08:18;;;;;;;25.52;7.10;;;8.20;90.90;;;;;;5025057;28;20033;-61
2022/02/16 04:10:44;;;;;;;18.63;5.88;;;8.20;90.90;;;;;;5027883;28;20042;-60
2022/02/16 04:13:09;;;;;;;25.75;7.07;;;8.20;90.90;;;;;;5028637;28;20492;-59
2022/02/16 04:15:36;;;;;;;19.45;6.45;;;8.20;90.80;;;;;;5012011;28;20036;-62
2022/02/16 04:18:01;;;;;;;23.00;7.00;;;8.20;90.80;;;;;;5014670;28;20037;-59
2022/02/16 04:20:27;;;;;;;26.90;7.70;;;8.20;90.80;;;;;;5012090;28;20030;-61
2022/02/16 04:22:53;;;;;;;27.52;6.80;;;8.20;90.80;;;;;;5011814;28;20057;-61
2022/02/16 04:25:18;;;;;;;22.52;6.85;;;8.20;90.70;;;;;;5015576;28;20034;-59
2022/02/16 04:27:44;;;;;;;22.23;5.95;;;8.20;90.80;;;;;;5025458;28;20036;-63
2022/02/16 04:30:10;;;;;;;20.55;6.30;;;8.20;90.80;;;;;;5006432;28;20045;-61
2022/02/16 04:32:35;;;;;;;24.00;7.55;;;8.20;90.80;;;;;;5010519;28;20040;-60
2022/02/16 04:35:01;;;;;;;25.92;6.35;;;8.20;90.80;;;;;;5012280;28;20061;-60
2022/02/16 04:37:26;;;;;;;15.70;6.53;;;8.20;90.80;;;;;;5017784;28;20496;-61
2022/02/16 04:39:52;;;;;;;18.30;6.28;;;8.20;90.90;;;;;;5013041;28;20072;-61
2022/02/16 04:42:17;;;;;;;22.40;6.20;;;8.20;91.00;;;;;;5027940;28;20029;-58
2022/02/16 04:44:43;;;;;;;18.77;5.95;;;8.20;90.90;;;;;;5022675;28;20414;-62
2022/02/16 04:47:08;;;;;;;14.48;5.60;;;8.20;90.80;;;;;;5000667;28;20119;-60
2022/02/16 04:49:34;;;;;;;19.33;6.15;;;8.20;90.70;;;;;;5016135;28;20029;-60
2022/02/16 04:52:00;;;;;;;19.20;6.35;;;8.20;90.70;;;;;;5024953;28;20575;-63
2022/02/16 04:54:25;;;;;;;16.98;5.22;;;8.20;90.90;;;;;;5004257;28;20508;-60
2022/02/16 04:56:51;;;;;;;16.98;5.60;;;8.20;90.60;;;;;;5016793;28;20094;-61
2022/02/16 04:59:16;;;;;;;16.70;5.63;;;8.20;90.50;;;;;;5016823;28;20034;-61
2022/02/16 05:01:45;;;;;;;14.93;5.85;;;8.20;90.50;;;;;;5026548;28;20017;-61
2022/02/16 05:04:10;;;;;;;17.88;5.13;;;8.00;90.40;;;;;;5011281;28;20038;-60
2022/02/16 05:06:37;;;;;;;16.98;5.88;;;8.20;90.50;;;;;;4996517;28;20036;-63
2022/02/16 05:09:06;;;;;;;13.65;5.60;;;8.10;90.40;;;;;;5017880;28;20049;-59
2022/02/16 05:11:31;;;;;;;25.58;5.38;;;8.20;90.50;;;;;;5012456;28;20029;-61
2022/02/16 05:13:57;;;;;;;14.77;5.70;;;8.20;90.60;;;;;;5023347;28;20033;-61
2022/02/16 05:16:23;;;;;;;19.30;6.03;;;8.10;90.60;;;;;;5010013;28;20050;-62
2022/02/16 05:18:48;;;;;;;13.57;5.60;;;8.10;90.60;;;;;;5016807;28;20466;-61
2022/02/16 05:21:14;;;;;;;18.80;5.50;;;8.20;90.60;;;;;;5011208;28;20042;-61
2022/02/16 05:23:39;;;;;;;13.18;4.85;;;8.20;90.50;;;;;;5012695;28;20025;-58
2022/02/16 05:26:05;;;;;;;20.02;5.53;;;8.10;90.50;;;;;;5013352;28;20117;-62
2022/02/16 05:28:30;;;;;;;15.70;4.85;;;8.20;90.50;;;;;;5019909;28;20127;-59
2022/02/16 05:30:56;;;;;;;16.13;5.07;;;8.20;90.50;;;;;;5012553;28;20497;-60
2022/02/16 05:33:22;;;;;;;18.58;5.18;;;8.10;90.50;;;;;;5013259;28;20030;-59
2022/02/16 05:35:47;;;;;;;15.48;5.18;;;8.10;90.40;;;;;;5014924;28;20100;-62
2022/02/16 05:38:13;;;;;;;13.35;4.88;;;8.10;90.20;;;;;;5012762;28;20080;-61
2022/02/16 05:40:38;;;;;;;16.83;5.00;;;8.20;90.00;;;;;;5009630;28;20965;-60
2022/02/16 05:43:04;;;;;;;10.68;4.07;;;8.10;90.00;;;;;;5019416;28;20117;-60
2022/02/16 05:45:31;;;;;;;11.85;4.18;;;8.10;90.20;;;;;;5017063;28;20113;-61
2022/02/16 05:47:56;;;;;;;11.88;4.78;;;8.10;89.80;;;;;;5011549;28;20021;-62
2022/02/16 05:50:22;;;;;;;15.98;4.50;;;8.20;89.50;;;;;;5021334;28;20087;-58
2022/02/16 05:52:47;;;;;;;36.60;6.15;;;8.10;89.60;;;;;;5023025;28;20034;-62
2022/02/16 05:55:13;;;;;;;23.95;4.95;;;8.10;89.70;;;;;;5019693;28;20076;-60
2022/02/16 05:57:38;;;;;;;18.38;5.00;;;8.10;89.80;;;;;;5024122;28;20025;-62
2022/02/16 06:00:05;;;;;;;12.00;5.00;;;8.10;89.90;;;;;;5017136;28;20042;-63
2022/02/16 06:02:31;;;;;;;12.77;4.57;;;8.10;89.90;;;;;;5019059;28;20176;-61
2022/02/16 06:04:56;;;;;;;21.60;5.28;;;8.10;90.00;;;;;;5013183;28;20228;-63
2022/02/16 06:07:22;;;;;;;13.27;4.93;;;8.10;90.00;;;;;;5018031;28;20389;-64
2022/02/16 06:09:47;;;;;;;19.80;5.32;;;8.10;90.10;;;;;;4992732;28;20412;-64
2022/02/16 06:12:13;;;;;;;16.23;4.72;;;8.10;90.10;;;;;;5016744;28;20100;-61
2022/02/16 06:14:38;;;;;;;14.40;4.53;;;8.10;90.00;;;;;;5016703;28;20068;-64
2022/02/16 06:17:04;;;;;;;17.77;4.68;;;8.10;90.00;;;;;;5021611;28;20464;-62
2022/02/16 06:19:29;;;;;;;20.65;6.10;;;8.10;90.10;;;;;;5019193;28;20025;-63
2022/02/16 06:21:55;;;;;;;12.55;5.20;;;8.10;90.10;;;;;;5016146;28;20914;-60
2022/02/16 06:24:21;;;;;;;17.02;5.70;;;8.10;90.30;;;;;;5016423;28;20037;-63
2022/02/16 06:26:46;;;;;;;18.27;4.25;;;8.10;90.10;;;;;;5018629;28;20026;-61
2022/02/16 06:29:12;;;;;;;17.23;5.13;;;8.10;90.20;;;;;;5021797;28;20032;-59
2022/02/16 06:31:38;;;;;;;13.77;4.53;;;8.10;90.20;;;;;;5012669;28;20025;-61
2022/02/16 06:34:03;;;;;;;17.92;4.30;;;8.10;90.30;;;;;;5021373;28;20131;-60
2022/02/16 06:36:29;;;;;;;16.05;4.68;;;8.10;90.30;;;;;;5029691;28;20067;-64
2022/02/16 06:38:54;;;;;;;18.45;4.88;;;8.10;90.30;;;;;;5027447;28;20100;-61
2022/02/16 06:41:21;;;;;;;13.48;4.03;;;8.10;90.20;;;;;;5016069;28;20092;-61
2022/02/16 06:43:47;;;;;;;16.02;3.92;;;8.10;90.10;;;;;;5025271;28;20024;-61
2022/02/16 06:46:12;;;;;;;10.27;4.18;;;8.10;90.40;;;;;;5028005;28;20108;-62
2022/02/16 06:48:38;;;;;;;10.05;4.28;;;8.10;90.10;;;;;;5023264;28;20117;-64
2022/02/16 06:51:04;;;;;;;12.07;3.92;;;8.10;90.10;;;;;;5033251;28;20037;-61
2022/02/16 06:53:30;;;;;;;11.93;4.38;;;8.10;90.10;;;;;;5032051;28;20064;-61
2022/02/16 06:55:55;;;;;;;11.85;4.57;;;8.10;90.20;;;;;;5018963;28;20091;-62
2022/02/16 06:58:21;;;;;;;12.95;4.40;;;8.10;90.20;;;;;;5019297;28;20029;-61
2022/02/16 07:00:46;;;;;;;14.18;4.00;;;8.10;90.20;;;;;;5017701;28;20398;-63
2022/02/16 07:03:13;;;;;;;12.82;4.47;;;8.10;90.50;;;;;;5022756;28;20504;-63
2022/02/16 07:05:39;;;;;;;8.35;3.78;;;8.10;90.20;;;;;;5022156;28;20086;-65
2022/02/16 07:08:05;;;;;;;8.95;3.53;;;8.10;90.20;;;;;;5025147;28;20102;-62
2022/02/16 07:10:31;;;;;;;11.32;3.88;;;8.10;90.20;;;;;;5015864;28;20521;-63
2022/02/16 07:12:56;;;;;;;13.05;3.78;;;8.10;90.20;;;;;;5008312;28;20017;-60
2022/02/16 07:15:22;;;;;;;15.25;4.03;;;8.10;90.20;;;;;;5004890;28;20069;-62
2022/02/16 07:17:47;;;;;;;8.30;3.30;;;8.10;90.20;;;;;;5014383;28;20234;-61
2022/02/16 07:20:14;;;;;;;12.80;3.63;;;8.10;90.20;;;;;;5027603;28;20362;-62
2022/02/16 07:22:44;;;;;;;8.75;3.53;;;8.10;90.20;;;;;;5023548;28;20036;-63
2022/02/16 07:25:10;;;;;;;8.50;3.90;;;8.10;90.20;;;;;;5023827;28;20025;-62
2022/02/16 07:27:35;;;;;;;9.02;3.28;;;8.00;90.10;;;;;;5015214;28;20053;-62
2022/02/16 07:30:02;;;;;;;8.45;3.60;;;8.10;90.20;;;;;;5022908;28;20041;-61
2022/02/16 07:32:28;;;;;;;6.05;3.22;;;8.10;90.20;;;;;;5023106;28;20481;-64
2022/02/16 07:34:53;;;;;;;13.02;3.40;;;8.00;90.20;;;;;;5029373;28;20060;-63
2022/02/16 07:37:19;;;;;;;8.02;2.92;;;8.10;90.20;;;;;;5023788;28;20033;-64
2022/02/16 07:39:44;;;;;;;8.27;3.50;;;8.10;90.20;;;;;;5011214;28;20029;-63
2022/02/16 07:42:10;;;;;;;6.72;3.00;;;8.10;90.30;;;;;;5019055;28;20046;-64
2022/02/16 07:44:35;;;;;;;11.38;3.33;;;8.10;90.20;;;;;;5027155;28;20022;-62
2022/02/16 07:47:02;;;;;;;8.80;2.97;;;8.10;90.20;;;;;;5024544;28;20462;-64
2022/02/16 07:49:27;;;;;;;8.18;3.00;;;8.10;90.10;;;;;;5014971;28;20176;-65
2022/02/16 07:51:53;;;;;;;8.48;2.90;;;8.20;90.10;;;;;;5009332;28;20113;-64
2022/02/16 07:54:18;;;;;;;9.02;2.95;;;8.10;90.10;;;;;;5022041;28;20057;-63
2022/02/16 07:56:44;;;;;;;7.82;2.95;;;8.10;90.50;;;;;;5019320;28;20293;-63
2022/02/16 07:59:10;;;;;;;12.48;3.13;;;8.10;90.20;;;;;;5014362;28;20373;-62
2022/02/16 08:01:35;;;;;;;12.57;3.22;;;8.10;90.20;;;;;;5015833;28;20253;-64
2022/02/16 08:04:18;;;;;;;8.38;2.72;;;8.20;90.30;;;;;;5012887;28;20045;-65
2022/02/16 08:06:45;;;;;;;7.07;3.30;;;8.10;90.30;;;;;;5017690;28;20068;-62
2022/02/16 08:09:11;;;;;;;7.93;2.67;;;8.10;90.20;;;;;;5027651;28;20030;-63
2022/02/16 08:11:37;;;;;;;12.30;2.58;;;8.10;90.20;;;;;;5012414;28;20064;-63
2022/02/16 08:14:03;;;;;;;8.00;3.50;;;8.10;90.30;;;;;;5027362;28;20038;-65
2022/02/16 08:16:29;;;;;;;6.00;2.95;;;8.10;90.30;;;;;;5013723;28;20100;-64
2022/02/16 08:18:55;;;;;;;9.75;2.80;;;8.20;90.30;;;;;;5024266;28;20497;-61
2022/02/16 08:21:20;;;;;;;15.93;3.85;;;8.10;90.30;;;;;;5001748;28;20040;-64
2022/02/16 08:23:46;;;;;;;7.93;3.15;;;8.10;90.40;;;;;;5022006;28;20037;-64
2022/02/16 08:26:11;;;;;;;12.07;3.17;;;8.10;90.40;;;;;;5015473;28;20576;-63
2022/02/16 08:28:37;;;;;;;5.20;2.63;;;8.10;90.80;;;;;;5018774;28;20029;-62
2022/02/16 08:31:03;;;;;;;6.68;2.47;;;8.10;90.50;;;;;;5017996;28;20073;-61
2022/02/16 08:33:29;;;;;;;11.32;2.70;;;8.10;90.50;;;;;;5021010;28;20460;-62
2022/02/16 08:35:54;;;;;;;9.00;2.88;;;8.10;90.60;;;;;;5019639;28;20044;-64
2022/02/16 08:38:20;;;;;;;9.43;2.92;;;8.10;90.60;;;;;;5011767;28;20057;-62
2022/02/16 08:40:45;;;;;;;13.80;2.83;;;8.10;90.70;;;;;;5016061;28;20556;-63
2022/02/16 08:43:11;;;;;;;10.45;2.70;;;8.10;90.70;;;;;;5020864;28;20041;-62
2022/02/16 08:45:36;;;;;;;12.40;3.20;;;8.10;90.80;;;;;;5018032;28;20030;-63
2022/02/16 08:48:02;;;;;;;11.20;3.20;;;8.10;90.80;;;;;;5002799;28;20030;-63
2022/02/16 08:50:27;;;;;;;18.05;3.40;;;8.10;90.90;;;;;;5015116;28;20029;-64
2022/02/16 08:52:53;;;;;;;19.33;4.40;;;8.10;90.90;;;;;;5014083;28;20045;-62
2022/02/16 08:55:19;;;;;;;26.88;4.50;;;8.10;90.90;;;;;;5016487;28;20041;-64
2022/02/16 08:57:44;;;;;;;34.30;4.88;;;8.10;91.00;;;;;;5019076;28;20029;-62
2022/02/16 09:00:10;;;;;;;20.30;4.20;;;8.10;91.00;;;;;;5016558;28;20440;-64
2022/02/16 09:02:36;;;;;;;40.75;6.20;;;8.20;91.10;;;;;;5020266;28;20080;-62
2022/02/16 09:05:02;;;;;;;21.42;4.63;;;8.20;91.20;;;;;;5025689;28;20029;-64
2022/02/16 09:07:28;;;;;;;25.45;5.38;;;8.20;91.10;;;;;;5022167;28;20627;-62
2022/02/16 09:09:54;;;;;;;43.40;6.70;;;8.20;91.20;;;;;;5013304;28;20112;-63
2022/02/16 09:12:20;;;;;;;41.13;6.43;;;8.20;91.20;;;;;;5021588;28;20033;-63
2022/02/16 09:14:45;;;;;;;66.20;9.00;;;8.30;91.30;;;;;;5024678;28;20121;-62
2022/02/16 09:17:10;;;;;;;60.67;8.90;;;8.20;91.30;;;;;;5026791;28;20041;-62
2022/02/16 09:19:37;;;;;;;70.35;8.75;;;8.30;91.50;;;;;;5021208;28;20083;-64
2022/02/16 09:22:03;;;;;;;90.40;11.05;;;8.30;91.50;;;;;;5005378;28;20033;-60
2022/02/16 09:24:28;;;;;;;101.00;12.18;;;8.30;91.50;;;;;;5017303;28;20040;-61
2022/02/16 09:26:54;;;;;;;116.68;13.15;;;8.30;91.50;;;;;;5005528;28;20120;-61
2022/02/16 09:29:19;;;;;;;77.05;10.15;;;8.30;91.50;;;;;;5009411;28;20042;-61
2022/02/16 09:31:45;;;;;;;79.57;11.23;;;8.40;91.50;;;;;;5020545;28;20026;-62
2022/02/16 09:34:10;;;;;;;82.90;10.65;;;8.30;91.50;;;;;;5015876;28;20357;-61
2022/02/16 09:36:36;;;;;;;148.30;15.55;;;8.40;91.60;;;;;;5023813;28;20026;-64
2022/02/16 09:39:02;;;;;;;169.73;17.88;;;8.40;91.50;;;;;;5014456;28;20046;-64
2022/02/16 09:41:29;;;;;;;109.90;13.15;;;8.40;91.50;;;;;;5012054;28;20038;-64
2022/02/16 09:43:55;;;;;;;104.22;12.55;;;8.40;91.60;;;;;;5012003;28;20037;-60
2022/02/16 09:46:20;;;;;;;89.05;10.85;;;8.50;91.60;;;;;;5019039;28;20349;-62
2022/02/16 09:48:46;;;;;;;60.30;10.15;;;8.50;91.50;;;;;;5016799;28;20105;-61
2022/02/16 09:51:11;;;;;;;85.00;10.88;;;8.50;91.40;;;;;;5014166;28;20107;-61
2022/02/16 09:53:37;;;;;;;58.13;10.48;;;8.50;91.50;;;;;;5013924;28;20053;-62
2022/02/16 09:56:03;;;;;;;79.47;10.07;;;8.50;91.40;;;;;;5001205;28;20552;-61
2022/02/16 09:58:29;;;;;;;49.78;9.88;;;8.60;91.40;;;;;;5007168;28;20093;-62
2022/02/16 10:01:11;;;;;;;94.20;11.38;;;8.60;91.40;;;;;;5009340;28;20038;-62
2022/02/16 10:03:37;;;;;;;73.68;12.23;;;8.60;91.50;;;;;;5010698;28;20041;-64
2022/02/16 10:06:03;;;;;;;74.63;13.30;;;8.60;91.80;;;;;;5005824;28;20029;-62
2022/02/16 10:08:46;;;;;;;98.25;11.75;;;8.70;92.00;;;;;;5004989;28;20099;-66
2022/02/16 10:11:12;;;;;;;88.10;12.07;;;8.70;91.90;;;;;;4996341;28;20030;-63
2022/02/16 10:13:38;;;;;;;96.60;12.20;;;8.70;91.90;;;;;;5013068;28;20104;-65
2022/02/16 10:16:03;;;;;;;83.60;12.15;;;8.70;91.80;;;;;;5011457;28;20298;-61
2022/02/16 10:18:29;;;;;;;76.78;11.00;;;8.80;91.80;;;;;;5021238;28;20032;-65
2022/02/16 10:21:11;;;;;;;82.32;11.68;;;8.80;91.70;;;;;;5014319;28;20098;-63
2022/02/16 10:23:42;;;;;;;64.88;10.73;;;8.80;91.70;;;;;;5006867;28;20037;-64
2022/02/16 10:26:07;;;;;;;101.53;12.23;;;8.80;91.80;;;;;;5018289;28;20029;-62
2022/02/16 10:28:42;;;;;;;59.60;10.02;;;8.80;91.70;;;;;;5015207;28;20032;-61
2022/02/16 10:31:08;;;;;;;88.25;11.65;;;8.90;91.80;;;;;;4993142;28;20335;-60
2022/02/16 10:33:42;;;;;;;86.85;10.68;;;8.90;92.00;;;;;;5005680;28;20049;-62
2022/02/16 10:36:11;;;;;;;74.03;11.32;;;9.00;92.10;;;;;;5009485;28;20065;-59
2022/02/16 10:38:56;;;;;;;81.43;11.35;;;8.90;92.00;;;;;;5017901;28;20033;-63
2022/02/16 10:41:24;;;;;;;74.90;10.68;;;9.00;92.10;;;;;;5008007;28;20516;-62
2022/02/16 10:43:50;;;;;;;79.10;10.90;;;9.00;92.00;;;;;;5009399;28;20517;-61
2022/02/16 10:46:29;;;;;;;92.18;13.50;;;9.00;92.00;;;;;;5012051;28;20025;-59
2022/02/16 10:49:14;;;;;;;60.22;9.35;;;9.00;92.10;;;;;;5016585;28;20048;-60
2022/02/16 10:51:40;;;;;;;68.17;11.37;;;9.10;92.10;;;;;;5007373;28;20081;-59
2022/02/16 10:54:18;;;;;;;59.20;10.00;;;9.10;92.10;;;;;;5015340;28;20482;-62
2022/02/16 10:56:47;;;;;;;72.68;10.93;;;9.10;92.10;;;;;;5009776;28;20603;-63
2022/02/16 10:59:12;;;;;;;63.50;9.57;;;9.10;92.10;;;;;;5001417;28;20030;-59
2022/02/16 11:01:38;;;;;;;70.68;9.35;;;9.10;92.20;;;;;;5013166;28;20088;-60
2022/02/16 11:04:05;;;;;;;61.60;10.38;;;9.10;92.30;;;;;;5009030;28;20667;-62
2022/02/16 11:06:32;;;;;;;78.88;10.52;;;9.20;92.40;;;;;;5011485;28;20044;-60
2022/02/16 11:08:58;;;;;;;74.07;10.35;;;9.10;92.40;;;;;;5012117;28;20030;-64
2022/02/16 11:11:23;;;;;;;75.78;10.35;;;9.10;92.30;;;;;;4995274;28;20052;-61
2022/02/16 11:13:49;;;;;;;64.20;9.90;;;9.20;92.40;;;;;;5002270;28;20485;-63
2022/02/16 11:16:16;;;;;;;86.55;10.27;;;9.20;92.40;;;;;;5010636;28;20034;-60
2022/02/16 11:18:49;;;;;;;67.15;9.63;;;9.20;92.50;;;;;;5016081;28;20029;-59
2022/02/16 11:21:19;;;;;;;80.57;10.05;;;9.20;92.40;;;;;;4999955;28;20137;-58
2022/02/16 11:23:47;;;;;;;71.43;12.30;;;9.20;92.50;;;;;;4998529;28;20026;-62
2022/02/16 11:26:37;;;;;;;84.93;10.32;;;9.30;92.40;;;;;;5008565;28;20404;-61
2022/02/16 11:29:09;;;;;;;84.00;12.20;;;9.30;92.40;;;;;;5007515;28;20048;-59
2022/02/16 11:31:38;;;;;;;80.75;10.40;;;9.30;92.40;;;;;;5013108;28;20477;-60
2022/02/16 11:34:15;;;;;;;71.05;9.63;;;9.30;92.60;;;;;;5005406;28;20045;-64
2022/02/16 11:36:54;;;;;;;54.22;8.65;;;9.30;92.50;;;;;;5017165;28;20056;-63
2022/02/16 11:39:57;;;;;;;78.45;12.35;;;9.20;92.40;;;;;;5015569;28;20366;-62
2022/02/16 11:42:47;;;;;;;105.47;12.60;;;9.20;92.40;;;;;;5020805;28;20377;-64
2022/02/16 11:45:13;;;;;;;81.15;11.80;;;9.30;92.60;;;;;;5009356;28;20312;-61
2022/02/16 11:47:42;;;;;;;77.85;10.60;;;9.30;92.60;;;;;;5006984;28;20414;-61
2022/02/16 11:50:11;;;;;;;77.47;10.65;;;9.30;92.60;;;;;;5017209;28;20033;-61
2022/02/16 11:52:39;;;;;;;73.18;11.02;;;9.30;92.60;;;;;;5018566;28;20018;-61
2022/02/16 11:55:22;;;;;;;65.40;10.05;;;9.30;92.60;;;;;;5009909;28;20080;-63
2022/02/16 11:58:04;;;;;;;74.00;11.52;;;9.40;92.50;;;;;;5020691;28;20030;-61
2022/02/16 12:00:35;;;;;;;82.75;8.82;;;9.30;92.50;;;;;;5011196;28;20149;-62
2022/02/16 12:03:07;;;;;;;49.72;7.47;;;9.30;92.40;;;;;;5012472;28;20037;-63
2022/02/16 12:06:03;;;;;;;44.75;7.22;;;9.50;92.30;;;;;;5009335;28;20109;-61
2022/02/16 12:08:37;;;;;;;45.17;7.45;;;9.30;92.20;;;;;;5006196;28;20232;-60
2022/02/16 12:11:06;;;;;;;37.28;7.28;;;9.30;92.20;;;;;;5009159;28;20037;-59
2022/02/16 12:13:36;;;;;;;45.13;6.65;;;9.30;92.20;;;;;;5014316;28;20061;-60
2022/02/16 12:16:07;;;;;;;40.90;6.43;;;9.30;92.20;;;;;;4994894;28;20049;-58
2022/02/16 12:18:33;;;;;;;41.75;6.68;;;9.40;92.10;;;;;;5010874;28;20145;-64
2022/02/16 12:21:00;;;;;;;31.63;5.65;;;9.40;92.20;;;;;;5015451;28;20446;-63
2022/02/16 12:23:27;;;;;;;39.97;5.28;;;9.40;92.20;;;;;;4994258;28;20026;-63
2022/02/16 12:26:09;;;;;;;48.58;7.20;;;9.40;92.20;;;;;;5011624;28;20029;-60
2022/02/16 12:28:47;;;;;;;52.03;8.20;;;9.40;92.30;;;;;;5012839;28;20241;-61
2022/02/16 12:31:13;;;;;;;53.72;8.15;;;9.40;92.40;;;;;;5021008;28;21448;-62
2022/02/16 12:33:38;;;;;;;47.60;7.22;;;9.40;92.50;;;;;;4998333;28;20057;-60
2022/02/16 12:36:06;;;;;;;36.92;6.00;;;9.40;92.70;;;;;;5011081;28;20323;-62
2022/02/16 12:38:32;;;;;;;35.42;5.38;;;9.30;92.60;;;;;;5013676;28;20032;-61
2022/02/16 12:41:00;;;;;;;49.58;7.72;;;9.40;92.40;;;;;;5010743;28;20025;-61